createdAt,value
2022-10-17T00:01:08.947Z,28.02
2022-10-17T00:03:40.407Z,30.95
2022-10-17T00:06:11.864Z,29.63
2022-10-17T00:08:44.025Z,29.75
2022-10-17T00:13:48.210Z,30.83
2022-10-17T00:16:27.240Z,31.10
2022-10-17T00:18:54.556Z,32.15
2022-10-17T00:21:23.022Z,29.20
2022-10-17T00:23:50.549Z,25.83
2022-10-17T00:26:18.661Z,33.38
2022-10-17T00:28:51.736Z,29.73
2022-10-17T00:31:21.385Z,31.13
2022-10-17T00:33:48.620Z,35.38
2022-10-17T00:36:23.262Z,27.83
2022-10-17T00:38:57.866Z,32.25
2022-10-17T00:41:33.161Z,32.40
2022-10-17T00:44:30.740Z,31.75
2022-10-17T00:47:11.280Z,30.98
2022-10-17T00:49:39.901Z,28.67
2022-10-17T00:52:21.438Z,35.35
2022-10-17T00:55:09.492Z,37.87
2022-10-17T00:57:36.921Z,29.23
2022-10-17T01:00:09.230Z,30.98
2022-10-17T01:05:04.061Z,32.17
2022-10-17T01:07:34.932Z,32.03
2022-10-17T01:10:06.562Z,27.70
2022-10-17T01:13:07.327Z,39.10
2022-10-17T01:15:40.713Z,31.60
2022-10-17T01:18:42.930Z,35.05
2022-10-17T01:21:54.802Z,29.15
2022-10-17T01:24:49.423Z,33.03
2022-10-17T01:27:37.868Z,31.83
2022-10-17T01:30:45.976Z,34.40
2022-10-17T01:33:18.049Z,28.80
2022-10-17T01:36:03.283Z,30.98
2022-10-17T01:38:59.079Z,34.03
2022-10-17T01:41:44.445Z,34.88
2022-10-17T01:44:28.963Z,37.03
2022-10-17T01:47:11.071Z,37.25
2022-10-17T01:49:41.771Z,26.73
2022-10-17T01:52:15.436Z,38.80
2022-10-17T01:55:02.733Z,32.67
2022-10-17T01:57:41.497Z,41.17
2022-10-17T02:00:19.179Z,44.97
2022-10-17T02:02:49.053Z,35.47
2022-10-17T02:05:21.848Z,42.95
2022-10-17T02:07:48.919Z,42.97
2022-10-17T02:10:30.983Z,42.13
2022-10-17T02:13:45.843Z,37.45
2022-10-17T02:16:38.315Z,37.95
2022-10-17T02:19:42.760Z,34.03
2022-10-17T02:22:24.827Z,37.95
2022-10-17T02:25:37.095Z,40.40
2022-10-17T02:28:36.179Z,31.50
2022-10-17T02:31:17.059Z,37.03
2022-10-17T02:34:03.102Z,38.20
2022-10-17T02:36:45.374Z,40.75
2022-10-17T02:39:15.698Z,37.63
2022-10-17T02:41:44.947Z,36.90
2022-10-17T02:44:12.550Z,41.78
2022-10-17T02:46:42.556Z,40.80
2022-10-17T02:49:22.977Z,42.28
2022-10-17T02:52:04.419Z,42.55
2022-10-17T02:54:39.185Z,37.97
2022-10-17T02:57:27.594Z,35.13
2022-10-17T03:00:00.596Z,41.15
2022-10-17T03:02:28.248Z,46.40
2022-10-17T03:04:56.448Z,42.35
2022-10-17T03:07:23.563Z,43.88
2022-10-17T03:09:50.838Z,41.45
2022-10-17T03:12:17.907Z,38.63
2022-10-17T03:14:45.083Z,38.47
2022-10-17T03:17:14.694Z,46.22
2022-10-17T03:19:41.886Z,43.30
2022-10-17T03:22:09.250Z,36.95
2022-10-17T03:24:36.310Z,44.80
2022-10-17T03:27:03.774Z,45.67
2022-10-17T03:29:31.035Z,41.25
2022-10-17T03:31:58.159Z,40.75
2022-10-17T03:34:25.289Z,41.10
2022-10-17T03:36:52.427Z,42.72
2022-10-17T03:39:21.745Z,40.92
2022-10-17T03:41:48.885Z,36.17
2022-10-17T03:44:16.026Z,35.03
2022-10-17T03:46:43.180Z,35.42
2022-10-17T03:49:13.311Z,33.63
2022-10-17T03:51:40.408Z,30.20
2022-10-17T03:54:07.437Z,27.00
2022-10-17T03:56:34.504Z,39.58
2022-10-17T03:59:01.622Z,38.92
2022-10-17T04:01:31.972Z,35.13
2022-10-17T04:04:01.808Z,36.47
2022-10-17T04:06:28.892Z,41.47
2022-10-17T04:08:59.152Z,56.20
2022-10-17T04:11:26.433Z,102.65
2022-10-17T04:14:03.333Z,53.58
2022-10-17T04:16:30.586Z,66.15
2022-10-17T04:18:59.887Z,54.65
2022-10-17T04:21:28.551Z,53.30
2022-10-17T04:24:00.653Z,54.17
2022-10-17T04:26:28.251Z,37.60
2022-10-17T04:28:56.367Z,30.08
2022-10-17T04:31:23.742Z,38.20
2022-10-17T04:33:51.309Z,42.95
2022-10-17T04:36:20.881Z,49.03
2022-10-17T04:38:48.340Z,45.25
2022-10-17T04:41:28.222Z,40.92
2022-10-17T04:43:57.662Z,44.47
2022-10-17T04:46:24.875Z,46.45
2022-10-17T04:48:52.093Z,47.05
2022-10-17T04:51:21.838Z,53.58
2022-10-17T04:53:53.999Z,44.75
2022-10-17T04:56:23.844Z,53.35
2022-10-17T04:58:52.046Z,44.00
2022-10-17T05:01:21.878Z,51.92
2022-10-17T05:03:49.853Z,40.65
2022-10-17T05:06:21.691Z,40.05
2022-10-17T05:08:49.113Z,46.42
2022-10-17T05:11:26.615Z,40.22
2022-10-17T05:14:01.752Z,39.92
2022-10-17T05:16:30.147Z,41.90
2022-10-17T05:18:59.482Z,45.28
2022-10-17T05:21:29.223Z,37.17
2022-10-17T05:23:56.614Z,32.88
2022-10-17T05:26:27.326Z,33.85
2022-10-17T05:28:54.851Z,36.53
2022-10-17T05:31:24.643Z,35.10
2022-10-17T05:33:51.706Z,36.67
2022-10-17T05:36:18.783Z,34.88
2022-10-17T05:38:51.288Z,42.78
2022-10-17T05:41:19.793Z,32.42
2022-10-17T05:43:47.137Z,30.02
2022-10-17T05:46:14.488Z,37.75
2022-10-17T05:48:41.531Z,29.83
2022-10-17T05:51:13.145Z,24.42
2022-10-17T05:53:41.857Z,25.45
2022-10-17T05:56:12.538Z,20.92
2022-10-17T05:58:50.164Z,30.73
2022-10-17T06:01:19.232Z,31.52
2022-10-17T06:03:46.579Z,29.05
2022-10-17T06:06:15.634Z,31.15
2022-10-17T06:08:43.390Z,28.90
2022-10-17T06:11:13.839Z,31.90
2022-10-17T06:13:57.287Z,35.15
2022-10-17T06:16:26.987Z,39.58
2022-10-17T06:18:54.337Z,29.38
2022-10-17T06:21:28.573Z,35.25
2022-10-17T06:23:55.592Z,25.05
2022-10-17T06:26:27.282Z,27.92
2022-10-17T06:28:57.997Z,33.28
2022-10-17T06:31:25.238Z,36.85
2022-10-17T06:33:52.276Z,34.45
2022-10-17T06:36:19.431Z,33.75
2022-10-17T06:38:46.772Z,32.25
2022-10-17T06:41:18.615Z,33.53
2022-10-17T06:43:47.274Z,33.28
2022-10-17T06:46:17.725Z,30.35
2022-10-17T06:48:45.416Z,42.88
2022-10-17T06:51:13.226Z,39.95
2022-10-17T06:53:41.121Z,32.22
2022-10-17T06:56:10.292Z,37.90
2022-10-17T06:58:39.957Z,37.53
2022-10-17T07:01:13.326Z,43.08
2022-10-17T07:03:43.737Z,39.55
2022-10-17T07:06:11.407Z,47.78
2022-10-17T07:08:42.401Z,36.10
2022-10-17T07:11:16.097Z,36.65
2022-10-17T07:13:43.865Z,34.17
2022-10-17T07:16:12.322Z,28.85
2022-10-17T07:18:40.327Z,29.40
2022-10-17T07:21:08.874Z,29.38
2022-10-17T07:23:37.384Z,44.80
2022-10-17T07:26:09.372Z,36.58
2022-10-17T07:31:12.050Z,45.40
2022-10-17T07:33:41.823Z,30.45
2022-10-17T07:36:12.611Z,31.77
2022-10-17T07:38:40.166Z,36.50
2022-10-17T07:41:20.805Z,26.13
2022-10-17T07:43:54.377Z,30.98
2022-10-17T07:46:36.374Z,32.86
2022-10-17T07:49:03.604Z,26.60
2022-10-17T07:51:33.612Z,28.63
2022-10-17T07:54:00.918Z,32.00
2022-10-17T07:56:29.668Z,32.95
2022-10-17T07:59:02.757Z,25.40
2022-10-17T08:01:34.748Z,40.00
2022-10-17T08:04:01.828Z,36.28
2022-10-17T08:06:31.308Z,24.42
2022-10-17T08:08:58.856Z,37.13
2022-10-17T08:11:28.336Z,30.42
2022-10-17T08:13:56.161Z,26.58
2022-10-17T08:16:25.277Z,32.13
2022-10-17T08:18:52.291Z,34.90
2022-10-17T08:21:21.751Z,27.52
2022-10-17T08:23:48.804Z,26.95
2022-10-17T08:26:17.408Z,31.38
2022-10-17T08:28:44.571Z,23.70
2022-10-17T08:31:20.954Z,27.70
2022-10-17T08:33:52.517Z,20.92
2022-10-17T08:36:22.286Z,18.73
2022-10-17T08:38:53.095Z,31.98
2022-10-17T08:41:39.009Z,31.15
2022-10-17T08:44:49.908Z,26.75
2022-10-17T08:47:28.258Z,28.30
2022-10-17T08:50:02.000Z,22.13
2022-10-17T08:53:02.892Z,20.83
2022-10-17T08:55:53.162Z,22.17
2022-10-17T08:58:36.884Z,35.22
2022-10-17T09:01:31.995Z,17.92
2022-10-17T09:04:46.517Z,23.27
2022-10-17T09:07:41.822Z,15.77
2022-10-17T09:10:19.456Z,21.00
2022-10-17T09:13:27.337Z,17.90
2022-10-17T09:16:31.092Z,19.15
2022-10-17T09:19:20.276Z,20.08
2022-10-17T09:22:10.704Z,20.83
2022-10-17T09:24:45.950Z,18.05
2022-10-17T09:27:36.879Z,18.42
2022-10-17T09:30:46.509Z,21.38
2022-10-17T09:33:42.227Z,24.48
2022-10-17T09:36:24.996Z,18.88
2022-10-17T09:39:05.715Z,24.65
2022-10-17T09:41:48.240Z,22.70
2022-10-17T09:44:22.574Z,21.85
2022-10-17T09:47:11.168Z,17.58
2022-10-17T09:49:45.010Z,24.48
2022-10-17T09:52:39.715Z,20.75
2022-10-17T09:55:22.609Z,24.52
2022-10-17T09:57:58.401Z,24.83
2022-10-17T10:00:31.825Z,21.45
2022-10-17T10:03:22.894Z,22.05
2022-10-17T10:06:12.541Z,20.17
2022-10-17T10:08:58.847Z,24.08
2022-10-17T10:12:15.862Z,19.00
2022-10-17T10:14:46.261Z,24.55
2022-10-17T10:17:44.262Z,23.25
2022-10-17T10:20:37.354Z,24.15
2022-10-17T10:23:19.521Z,22.58
2022-10-17T10:25:56.690Z,19.50
2022-10-17T10:28:37.470Z,17.65
2022-10-17T10:31:09.861Z,19.38
2022-10-17T10:33:45.937Z,18.75
2022-10-17T10:36:16.552Z,30.58
2022-10-17T10:39:00.171Z,20.90
2022-10-17T10:41:48.040Z,19.20
2022-10-17T10:44:21.629Z,19.63
2022-10-17T10:46:48.725Z,25.52
2022-10-17T10:49:31.676Z,20.55
2022-10-17T10:52:00.533Z,22.35
2022-10-17T10:54:42.322Z,19.45
2022-10-17T10:59:51.925Z,20.77
2022-10-17T11:02:25.198Z,21.70
2022-10-17T11:05:14.545Z,18.15
2022-10-17T11:07:56.200Z,19.02
2022-10-17T11:10:55.366Z,18.58
2022-10-17T11:13:32.925Z,17.52
2022-10-17T11:16:21.890Z,16.75
2022-10-17T11:19:28.525Z,15.90
2022-10-17T11:22:15.008Z,16.23
2022-10-17T11:24:59.776Z,17.92
2022-10-17T11:27:29.671Z,15.98
2022-10-17T11:29:59.449Z,13.27
2022-10-17T11:32:40.641Z,14.88
2022-10-17T11:35:25.183Z,21.30
2022-10-17T11:38:24.363Z,14.48
2022-10-17T11:40:56.112Z,12.35
2022-10-17T11:43:48.831Z,16.27
2022-10-17T11:46:25.638Z,19.13
2022-10-17T11:49:38.223Z,17.10
2022-10-17T11:52:37.441Z,13.48
2022-10-17T11:55:18.433Z,10.57
2022-10-17T11:58:10.215Z,14.38
2022-10-17T12:00:58.965Z,13.57
2022-10-17T12:04:02.292Z,16.27
2022-10-17T12:07:14.100Z,12.82
2022-10-17T12:10:27.832Z,13.52
2022-10-17T12:12:54.971Z,18.45
2022-10-17T12:15:27.135Z,17.40
2022-10-17T12:18:04.306Z,16.63
2022-10-17T12:20:40.541Z,14.88
2022-10-17T12:23:16.569Z,15.38
2022-10-17T12:26:05.750Z,14.60
2022-10-17T12:28:46.829Z,14.55
2022-10-17T12:31:17.404Z,18.80
2022-10-17T12:34:02.589Z,15.05
2022-10-17T12:36:32.116Z,15.15
2022-10-17T12:39:02.237Z,16.45
2022-10-17T12:41:38.497Z,17.00
2022-10-17T12:44:15.032Z,18.58
2022-10-17T12:47:10.834Z,22.20
2022-10-17T12:49:44.177Z,20.60
2022-10-17T12:52:29.002Z,17.73
2022-10-17T12:55:14.787Z,15.80
2022-10-17T12:58:09.460Z,18.95
2022-10-17T13:01:19.130Z,21.63
2022-10-17T13:03:47.770Z,19.98
2022-10-17T13:06:37.926Z,17.65
2022-10-17T13:09:26.859Z,20.27
2022-10-17T13:11:55.446Z,20.77
2022-10-17T13:14:25.002Z,20.50
2022-10-17T13:17:01.848Z,15.50
2022-10-17T13:19:44.940Z,22.58
2022-10-17T13:22:24.466Z,15.48
2022-10-17T13:25:05.457Z,18.13
2022-10-17T13:27:35.070Z,17.57
2022-10-17T13:30:29.476Z,17.67
2022-10-17T13:33:00.034Z,16.35
2022-10-17T13:38:32.350Z,16.15
2022-10-17T13:41:23.297Z,16.85
2022-10-17T13:43:48.490Z,19.08
2022-10-17T13:46:39.547Z,23.58
2022-10-17T13:49:35.457Z,19.60
2022-10-17T13:52:06.275Z,18.33
2022-10-17T13:54:45.883Z,17.90
2022-10-17T13:57:24.288Z,21.35
2022-10-17T14:00:03.125Z,21.75
2022-10-17T14:02:34.912Z,15.85
2022-10-17T14:05:19.198Z,21.15
2022-10-17T14:08:12.037Z,16.85
2022-10-17T14:10:43.301Z,19.27
2022-10-17T14:13:30.348Z,23.48
2022-10-17T14:16:01.847Z,23.02
2022-10-17T14:18:36.408Z,18.92
2022-10-17T14:24:13.538Z,25.60
2022-10-17T14:26:59.978Z,19.95
2022-10-17T14:29:32.571Z,21.55
2022-10-17T14:32:10.914Z,31.42
2022-10-17T14:34:40.884Z,23.55
2022-10-17T14:37:28.623Z,24.35
2022-10-17T14:39:58.952Z,26.63
2022-10-17T14:42:26.353Z,23.38
2022-10-17T14:44:57.890Z,24.52
2022-10-17T14:47:42.705Z,29.17
2022-10-17T14:50:13.447Z,21.50
2022-10-17T14:52:43.333Z,38.63
2022-10-17T14:55:28.784Z,27.40
2022-10-17T14:57:56.383Z,23.58
2022-10-17T15:00:25.013Z,19.13
2022-10-17T15:02:54.354Z,19.25
2022-10-17T15:05:23.784Z,18.63
2022-10-17T15:07:51.061Z,23.20
2022-10-17T15:10:36.756Z,19.42
2022-10-17T15:13:26.130Z,24.38
2022-10-17T15:15:52.601Z,23.50
2022-10-17T15:18:19.767Z,18.52
2022-10-17T15:20:59.604Z,21.48
2022-10-17T15:23:32.352Z,18.08
2022-10-17T15:25:59.456Z,20.45
2022-10-17T15:28:27.494Z,17.10
2022-10-17T15:30:54.650Z,16.92
2022-10-17T15:33:21.706Z,25.58
2022-10-17T15:35:51.770Z,24.75
2022-10-17T15:38:18.854Z,22.88
2022-10-17T15:40:53.300Z,24.77
2022-10-17T15:43:20.352Z,22.30
2022-10-17T15:45:48.187Z,27.15
2022-10-17T15:48:26.736Z,21.35
2022-10-17T15:50:55.870Z,25.58
2022-10-17T15:53:23.981Z,28.20
2022-10-17T15:55:51.136Z,17.55
2022-10-17T15:58:19.656Z,18.75
2022-10-17T16:00:47.751Z,19.10
2022-10-17T16:03:14.950Z,19.65
2022-10-17T16:05:41.987Z,25.40
2022-10-17T16:08:09.083Z,25.23
2022-10-17T16:10:40.880Z,22.33
2022-10-17T16:13:28.997Z,23.23
2022-10-17T16:15:56.040Z,27.38
2022-10-17T16:18:23.092Z,24.92
2022-10-17T16:20:52.609Z,28.20
2022-10-17T16:23:19.689Z,27.15
2022-10-17T16:25:46.810Z,29.23
2022-10-17T16:28:13.867Z,30.52
2022-10-17T16:30:44.934Z,30.45
2022-10-17T16:33:12.796Z,23.43
2022-10-17T16:35:42.387Z,27.58
2022-10-17T16:38:09.479Z,21.52
2022-10-17T16:40:39.302Z,24.13
2022-10-17T16:43:07.678Z,22.42
2022-10-17T16:45:36.113Z,27.17
2022-10-17T16:48:03.494Z,22.83
2022-10-17T16:50:35.313Z,23.38
2022-10-17T16:53:03.993Z,31.58
2022-10-17T16:55:31.023Z,29.50
2022-10-17T16:57:59.970Z,28.98
2022-10-17T17:00:29.379Z,38.75
2022-10-17T17:02:58.771Z,33.97
2022-10-17T17:05:25.839Z,31.50
2022-10-17T17:07:53.167Z,39.75
2022-10-17T17:10:22.648Z,43.30
2022-10-17T17:12:49.653Z,43.38
2022-10-17T17:15:16.688Z,40.20
2022-10-17T17:17:50.586Z,33.03
2022-10-17T17:20:20.569Z,39.38
2022-10-17T17:22:50.880Z,26.98
2022-10-17T17:25:17.953Z,29.02
2022-10-17T17:27:44.935Z,27.33
2022-10-17T17:30:12.324Z,32.22
2022-10-17T17:32:42.164Z,32.83
2022-10-17T17:35:09.841Z,35.13
2022-10-17T17:37:37.113Z,39.65
2022-10-17T17:40:06.177Z,32.45
2022-10-17T17:42:35.558Z,25.38
2022-10-17T17:45:03.251Z,31.17
2022-10-17T17:47:30.580Z,36.72
2022-10-17T17:49:57.862Z,39.95
2022-10-17T17:52:25.209Z,31.88
2022-10-17T17:54:52.238Z,27.20
2022-10-17T17:57:19.358Z,23.85
2022-10-17T17:59:49.862Z,32.67
2022-10-17T18:02:17.335Z,29.23
2022-10-17T18:04:46.427Z,29.27
2022-10-17T18:07:13.454Z,27.30
2022-10-17T18:09:40.471Z,30.52
2022-10-17T18:12:09.944Z,28.42
2022-10-17T18:14:36.942Z,31.98
2022-10-17T18:17:03.999Z,36.72
2022-10-17T18:19:31.158Z,33.03
2022-10-17T18:22:00.708Z,27.23
2022-10-17T18:24:27.926Z,44.20
2022-10-17T18:26:59.681Z,31.55
2022-10-17T18:29:27.680Z,30.38
2022-10-17T18:31:57.226Z,42.78
2022-10-17T18:34:24.734Z,31.88
2022-10-17T18:36:52.965Z,37.75
2022-10-17T18:39:20.565Z,36.28
2022-10-17T18:41:47.614Z,36.03
2022-10-17T18:44:15.673Z,43.72
2022-10-17T18:46:43.200Z,32.53
2022-10-17T18:49:15.935Z,31.75
2022-10-17T18:51:45.489Z,42.15
2022-10-17T18:54:20.669Z,39.97
2022-10-17T18:56:53.966Z,52.17
2022-10-17T18:59:23.827Z,40.33
2022-10-17T19:01:51.097Z,40.78
2022-10-17T19:04:20.793Z,32.53
2022-10-17T19:06:47.917Z,21.77
2022-10-17T19:09:15.968Z,24.92
2022-10-17T19:11:43.540Z,21.05
2022-10-17T19:14:13.497Z,30.67
2022-10-17T19:16:51.739Z,28.20
2022-10-17T19:19:23.213Z,27.27
2022-10-17T19:21:51.326Z,37.30
2022-10-17T19:24:25.041Z,27.58
2022-10-17T19:26:58.320Z,22.10
2022-10-17T19:29:28.678Z,27.70
2022-10-17T19:34:22.768Z,29.63
2022-10-17T19:36:49.918Z,31.13
2022-10-17T19:39:26.623Z,27.25
2022-10-17T19:41:53.771Z,25.55
2022-10-17T19:44:20.994Z,27.30
2022-10-17T19:46:50.538Z,24.35
2022-10-17T19:49:20.269Z,36.88
2022-10-17T19:51:47.423Z,33.40
2022-10-17T19:54:18.271Z,29.38
2022-10-17T19:56:45.369Z,30.40
2022-10-17T19:59:17.022Z,35.65
2022-10-17T20:01:45.086Z,29.17
2022-10-17T20:04:13.043Z,30.60
2022-10-17T20:06:41.215Z,30.45
2022-10-17T20:09:13.953Z,33.92
2022-10-17T20:11:49.232Z,27.98
2022-10-17T20:14:18.475Z,36.33
2022-10-17T20:16:50.143Z,28.15
2022-10-17T20:19:19.129Z,28.10
2022-10-17T20:21:46.340Z,28.20
2022-10-17T20:24:17.067Z,28.55
2022-10-17T20:27:04.430Z,31.70
2022-10-17T20:29:31.665Z,25.55
2022-10-17T20:31:59.022Z,27.63
2022-10-17T20:34:26.157Z,31.20
2022-10-17T20:36:55.518Z,39.22
2022-10-17T20:39:23.469Z,30.67
2022-10-17T20:41:50.541Z,37.42
2022-10-17T20:44:17.764Z,28.17
2022-10-17T20:46:57.628Z,29.10
2022-10-17T20:49:28.712Z,31.50
2022-10-17T20:51:56.091Z,35.70
2022-10-17T20:54:23.257Z,35.65
2022-10-17T20:56:50.413Z,30.02
2022-10-17T20:59:18.278Z,33.92
2022-10-17T21:01:46.231Z,36.17
2022-10-17T21:07:01.581Z,32.00
2022-10-17T21:09:28.702Z,30.40
2022-10-17T21:11:58.123Z,32.13
2022-10-17T21:14:28.676Z,32.10
2022-10-17T21:16:55.804Z,32.63
2022-10-17T21:19:22.915Z,29.52
2022-10-17T21:21:50.782Z,44.35
2022-10-17T21:24:20.562Z,43.58
2022-10-17T21:26:55.296Z,34.47
2022-10-17T21:29:23.842Z,36.30
2022-10-17T21:31:51.460Z,34.03
2022-10-17T21:34:23.917Z,37.80
2022-10-17T21:36:53.912Z,34.90
2022-10-17T21:39:25.968Z,31.52
2022-10-17T21:41:55.281Z,39.00
2022-10-17T21:44:25.364Z,32.95
2022-10-17T21:46:53.637Z,35.25
2022-10-17T21:49:25.384Z,34.20
2022-10-17T21:51:53.275Z,34.67
2022-10-17T21:54:23.074Z,34.00
2022-10-17T21:56:51.219Z,33.45
2022-10-17T21:59:18.512Z,36.92
2022-10-17T22:01:48.445Z,29.98
2022-10-17T22:04:19.182Z,30.52
2022-10-17T22:06:51.141Z,34.70
2022-10-17T22:11:57.869Z,30.34
2022-10-17T22:14:28.338Z,28.92
2022-10-17T22:16:56.263Z,34.28
2022-10-17T22:19:28.391Z,29.00
2022-10-17T22:24:25.443Z,33.30
2022-10-17T22:26:52.750Z,30.15
2022-10-17T22:29:22.003Z,31.05
2022-10-17T22:31:49.311Z,28.88
2022-10-17T22:34:18.030Z,29.13
2022-10-17T22:36:49.037Z,34.67
2022-10-17T22:39:16.455Z,30.67
2022-10-17T22:41:46.021Z,36.80
2022-10-17T22:44:13.230Z,27.60
2022-10-17T22:46:43.014Z,28.25
2022-10-17T22:49:12.483Z,36.95
2022-10-17T22:51:39.665Z,30.52
2022-10-17T22:54:06.881Z,30.88
2022-10-17T22:56:33.960Z,31.80
2022-10-17T22:59:01.019Z,35.20
2022-10-17T23:01:28.140Z,29.02
2022-10-17T23:03:57.585Z,29.25
2022-10-17T23:06:24.879Z,30.77
2022-10-17T23:08:52.448Z,29.20
2022-10-17T23:11:21.033Z,30.70
2022-10-17T23:13:48.669Z,29.35
2022-10-17T23:16:16.110Z,28.48
2022-10-17T23:18:44.222Z,28.10
2022-10-17T23:21:14.334Z,28.42
2022-10-17T23:23:41.440Z,29.60
2022-10-17T23:26:16.548Z,29.85
2022-10-17T23:28:43.938Z,27.55
2022-10-17T23:31:22.358Z,28.13
2022-10-17T23:33:50.311Z,28.02
2022-10-17T23:36:23.069Z,32.90
2022-10-17T23:38:52.650Z,23.55
2022-10-17T23:41:22.149Z,25.42
2022-10-17T23:43:49.234Z,36.97
2022-10-17T23:46:16.296Z,28.52
2022-10-17T23:48:46.011Z,34.20
2022-10-17T23:51:13.347Z,29.50
2022-10-17T23:53:41.244Z,28.88
2022-10-17T23:56:10.383Z,32.75
2022-10-17T23:58:42.904Z,28.33
